createdAt,value
2023-05-08T00:01:20.765Z,10.50
2023-05-08T00:03:47.504Z,13.53
2023-05-08T00:06:14.385Z,11.40
2023-05-08T00:08:42.236Z,11.30
2023-05-08T00:11:08.970Z,8.70
2023-05-08T00:13:35.545Z,9.60
2023-05-08T00:16:02.302Z,17.23
2023-05-08T00:18:28.839Z,42.20
2023-05-08T00:20:55.513Z,19.90
2023-05-08T00:23:22.386Z,19.63
2023-05-08T00:25:49.175Z,23.77
2023-05-08T00:28:15.641Z,13.07
2023-05-08T00:30:42.824Z,9.60
2023-05-08T00:33:09.867Z,8.73
2023-05-08T00:35:36.627Z,12.03
2023-05-08T00:38:03.352Z,11.30
2023-05-08T00:40:30.109Z,8.63
2023-05-08T00:42:56.629Z,13.43
2023-05-08T00:45:23.277Z,15.87
2023-05-08T00:47:50.952Z,15.57
2023-05-08T00:50:18.466Z,11.60
2023-05-08T00:52:45.732Z,12.50
2023-05-08T00:55:12.559Z,7.47
2023-05-08T00:57:39.243Z,11.33
2023-05-08T01:00:07.563Z,7.67
2023-05-08T01:02:35.169Z,10.37
2023-05-08T01:05:03.699Z,11.10
2023-05-08T01:07:30.271Z,10.53
2023-05-08T01:09:56.988Z,14.70
2023-05-08T01:12:54.382Z,14.23
2023-05-08T01:15:25.898Z,14.47
2023-05-08T01:18:17.482Z,14.93
2023-05-08T01:20:48.905Z,10.20
2023-05-08T01:23:32.575Z,10.70
2023-05-08T01:26:27.566Z,11.83
2023-05-08T01:29:18.637Z,13.93
2023-05-08T01:32:17.796Z,9.13
2023-05-08T01:35:07.884Z,12.93
2023-05-08T01:37:52.012Z,22.87
2023-05-08T01:40:27.699Z,19.13
2023-05-08T01:43:03.345Z,16.47
2023-05-08T01:45:33.237Z,20.33
2023-05-08T01:48:10.999Z,24.70
2023-05-08T01:50:47.218Z,16.90
2023-05-08T01:53:20.520Z,16.00
2023-05-08T01:55:48.974Z,15.57
2023-05-08T01:58:16.436Z,15.70
2023-05-08T02:00:43.323Z,15.70
2023-05-08T02:03:11.180Z,16.10
2023-05-08T02:05:38.596Z,14.63
2023-05-08T02:08:06.266Z,19.53
2023-05-08T02:10:33.174Z,10.87
2023-05-08T02:13:00.360Z,13.50
2023-05-08T02:15:27.870Z,14.20
2023-05-08T02:17:55.767Z,10.63
2023-05-08T02:20:22.923Z,14.23
2023-05-08T02:22:51.383Z,13.57
2023-05-08T02:25:18.261Z,16.40
2023-05-08T02:27:48.501Z,12.90
2023-05-08T02:30:16.505Z,10.57
2023-05-08T02:32:44.776Z,12.77
2023-05-08T02:35:16.724Z,7.23
2023-05-08T02:37:45.208Z,14.30
2023-05-08T02:40:13.693Z,11.70
2023-05-08T02:42:40.530Z,14.63
2023-05-08T02:45:07.763Z,12.43
2023-05-08T02:48:01.345Z,11.20
2023-05-08T02:50:36.265Z,13.97
2023-05-08T02:53:06.700Z,20.33
2023-05-08T02:55:43.203Z,14.77
2023-05-08T02:58:41.789Z,17.57
2023-05-08T03:01:23.134Z,10.43
2023-05-08T03:03:54.543Z,13.07
2023-05-08T03:06:24.496Z,21.53
2023-05-08T03:08:51.942Z,18.40
2023-05-08T03:11:21.786Z,18.40
2023-05-08T03:13:49.277Z,18.10
2023-05-08T03:16:19.289Z,12.20
2023-05-08T03:18:56.092Z,17.50
2023-05-08T03:21:24.647Z,13.37
2023-05-08T03:23:52.750Z,20.60
2023-05-08T03:26:19.721Z,12.23
2023-05-08T03:28:50.837Z,16.93
2023-05-08T03:31:21.638Z,19.93
2023-05-08T03:33:49.381Z,14.80
2023-05-08T03:36:16.196Z,12.90
2023-05-08T03:38:42.842Z,13.60
2023-05-08T03:41:09.627Z,13.43
2023-05-08T03:43:37.138Z,16.63
2023-05-08T03:46:07.261Z,21.07
2023-05-08T03:48:34.577Z,16.70
2023-05-08T03:51:05.267Z,24.30
2023-05-08T03:53:33.756Z,21.50
2023-05-08T03:56:00.765Z,24.87
2023-05-08T03:58:39.029Z,22.80
2023-05-08T04:01:19.136Z,25.10
2023-05-08T04:03:55.109Z,20.87
2023-05-08T04:06:35.614Z,24.60
2023-05-08T04:09:14.794Z,31.67
2023-05-08T04:11:44.645Z,26.40
2023-05-08T04:14:16.983Z,22.17
2023-05-08T04:16:49.319Z,23.83
2023-05-08T04:19:21.223Z,35.17
2023-05-08T04:21:48.429Z,25.93
2023-05-08T04:24:15.942Z,24.10
2023-05-08T04:26:43.607Z,31.57
2023-05-08T04:29:10.813Z,30.43
2023-05-08T04:31:37.867Z,25.13
2023-05-08T04:34:04.674Z,27.33
2023-05-08T04:36:32.123Z,26.13
2023-05-08T04:38:59.228Z,30.33
2023-05-08T04:41:26.412Z,28.57
2023-05-08T04:43:53.936Z,35.13
2023-05-08T04:46:20.914Z,29.43
2023-05-08T04:48:47.542Z,35.63
2023-05-08T04:51:14.151Z,34.37
2023-05-08T04:53:40.730Z,24.93
2023-05-08T04:56:07.371Z,29.57
2023-05-08T04:58:33.991Z,34.47
2023-05-08T05:01:04.290Z,27.17
2023-05-08T05:03:31.372Z,29.27
2023-05-08T05:06:01.522Z,38.23
2023-05-08T05:08:28.101Z,40.47
2023-05-08T05:10:54.885Z,32.20
2023-05-08T05:13:21.429Z,40.63
2023-05-08T05:15:48.320Z,36.77
2023-05-08T05:18:14.864Z,28.20
2023-05-08T05:20:41.588Z,25.90
2023-05-08T05:23:08.070Z,29.10
2023-05-08T05:25:34.838Z,23.93
2023-05-08T05:28:02.123Z,26.73
2023-05-08T05:30:28.707Z,26.30
2023-05-08T05:32:55.307Z,46.87
2023-05-08T05:35:23.520Z,27.57
2023-05-08T05:37:51.491Z,29.60
2023-05-08T05:40:18.166Z,29.77
2023-05-08T05:42:49.266Z,25.30
2023-05-08T05:45:16.062Z,24.63
2023-05-08T05:47:50.082Z,25.93
2023-05-08T05:50:21.808Z,23.60
2023-05-08T05:52:48.384Z,30.57
2023-05-08T05:55:16.280Z,26.90
2023-05-08T05:57:42.822Z,33.90
2023-05-08T06:00:09.566Z,25.73
2023-05-08T06:02:37.009Z,32.43
2023-05-08T06:05:04.351Z,29.20
2023-05-08T06:07:30.949Z,35.97
2023-05-08T06:09:57.771Z,30.00
2023-05-08T06:12:24.605Z,29.90
2023-05-08T06:14:53.335Z,27.03
2023-05-08T06:17:20.165Z,25.07
2023-05-08T06:19:50.713Z,26.10
2023-05-08T06:22:23.133Z,27.47
2023-05-08T06:24:53.406Z,24.97
2023-05-08T06:27:21.074Z,31.77
2023-05-08T06:29:48.769Z,26.43
2023-05-08T06:32:15.420Z,23.47
2023-05-08T06:34:42.022Z,29.90
2023-05-08T06:37:08.883Z,32.77
2023-05-08T06:39:35.458Z,29.07
2023-05-08T06:42:02.669Z,30.43
2023-05-08T06:44:29.197Z,30.40
2023-05-08T06:46:55.880Z,25.30
2023-05-08T06:49:23.133Z,33.97
2023-05-08T06:51:49.851Z,26.30
2023-05-08T06:54:16.702Z,28.10
2023-05-08T06:56:43.247Z,26.07
2023-05-08T06:59:09.839Z,26.07
2023-05-08T07:01:37.568Z,28.50
2023-05-08T07:04:04.807Z,30.87
2023-05-08T07:06:31.361Z,26.83
2023-05-08T07:08:58.051Z,33.67
2023-05-08T07:11:24.846Z,33.33
2023-05-08T07:13:51.599Z,32.83
2023-05-08T07:16:18.317Z,27.70
2023-05-08T07:18:44.973Z,25.67
2023-05-08T07:21:11.642Z,26.83
2023-05-08T07:23:38.228Z,26.20
2023-05-08T07:26:04.918Z,30.73
2023-05-08T07:28:31.453Z,34.53
2023-05-08T07:30:58.309Z,35.90
2023-05-08T07:33:24.857Z,41.00
2023-05-08T07:35:51.527Z,40.93
2023-05-08T07:38:18.240Z,29.77
2023-05-08T07:40:44.915Z,27.73
2023-05-08T07:43:11.765Z,36.03
2023-05-08T07:45:38.304Z,32.70
2023-05-08T07:48:05.117Z,28.10
2023-05-08T07:50:31.961Z,41.40
2023-05-08T07:52:58.716Z,37.30
2023-05-08T07:55:25.673Z,44.50
2023-05-08T07:57:52.629Z,41.50
2023-05-08T08:00:19.366Z,40.53
2023-05-08T08:02:46.138Z,35.00
2023-05-08T08:05:13.283Z,42.07
2023-05-08T08:07:40.109Z,32.27
2023-05-08T08:10:07.989Z,34.43
2023-05-08T08:12:34.831Z,39.93
2023-05-08T08:15:01.404Z,39.73
2023-05-08T08:17:28.834Z,39.13
2023-05-08T08:19:56.521Z,44.80
2023-05-08T08:22:24.175Z,62.17
2023-05-08T08:24:51.891Z,42.73
2023-05-08T08:27:20.740Z,47.53
2023-05-08T08:29:47.376Z,35.20
2023-05-08T08:32:14.025Z,35.10
2023-05-08T08:34:40.570Z,41.73
2023-05-08T08:37:07.149Z,49.00
2023-05-08T08:39:34.567Z,41.40
2023-05-08T08:42:01.715Z,46.33
2023-05-08T08:44:28.478Z,33.53
2023-05-08T08:46:55.174Z,40.53
2023-05-08T08:49:27.288Z,37.43
2023-05-08T08:51:56.390Z,38.37
2023-05-08T08:54:29.472Z,42.40
2023-05-08T08:56:57.195Z,35.37
2023-05-08T08:59:25.312Z,42.67
2023-05-08T09:01:56.732Z,42.97
2023-05-08T09:04:27.158Z,39.43
2023-05-08T09:06:54.945Z,38.20
2023-05-08T09:09:22.659Z,36.23
2023-05-08T09:11:49.413Z,43.93
2023-05-08T09:14:16.092Z,37.80
2023-05-08T09:16:42.820Z,42.70
2023-05-08T09:19:09.780Z,36.67
2023-05-08T09:21:36.539Z,38.50
2023-05-08T09:24:05.076Z,36.63
2023-05-08T09:26:37.132Z,34.23
2023-05-08T09:29:17.080Z,41.30
2023-05-08T09:31:48.165Z,36.93
2023-05-08T09:34:25.189Z,34.40
2023-05-08T09:36:51.926Z,40.17
2023-05-08T09:39:24.037Z,36.40
2023-05-08T09:42:04.500Z,42.27
2023-05-08T09:44:47.869Z,40.83
2023-05-08T09:47:16.353Z,45.00
2023-05-08T09:49:58.217Z,34.50
2023-05-08T09:52:27.289Z,33.80
2023-05-08T09:54:58.878Z,40.63
2023-05-08T09:57:26.917Z,38.80
2023-05-08T10:00:10.436Z,46.30
2023-05-08T10:02:38.042Z,38.47
2023-05-08T10:05:06.710Z,36.20
2023-05-08T10:07:34.996Z,31.97
2023-05-08T10:10:04.065Z,34.40
2023-05-08T10:12:31.050Z,44.17
2023-05-08T10:14:58.182Z,41.60
2023-05-08T10:17:37.056Z,33.70
2023-05-08T10:20:06.962Z,36.00
2023-05-08T10:22:37.310Z,36.80
2023-05-08T10:25:05.222Z,42.20
2023-05-08T10:27:39.608Z,38.57
2023-05-08T10:30:08.025Z,35.00
2023-05-08T10:32:41.868Z,32.53
2023-05-08T10:35:10.872Z,32.40
2023-05-08T10:37:39.296Z,30.10
2023-05-08T10:40:06.913Z,37.17
2023-05-08T10:42:35.733Z,34.63
2023-05-08T10:45:04.894Z,37.33
2023-05-08T10:48:02.445Z,38.23
2023-05-08T10:50:33.596Z,39.03
2023-05-08T10:53:07.606Z,43.13
2023-05-08T10:55:39.719Z,43.90
2023-05-08T10:58:12.387Z,39.00
2023-05-08T11:00:57.199Z,37.20
2023-05-08T11:03:31.936Z,41.53
2023-05-08T11:06:00.739Z,47.40
2023-05-08T11:08:28.784Z,41.20
2023-05-08T11:11:02.107Z,36.90
2023-05-08T11:13:38.024Z,38.50
2023-05-08T11:16:11.156Z,43.00
2023-05-08T11:18:49.000Z,35.30
2023-05-08T11:21:21.716Z,35.67
2023-05-08T11:23:56.842Z,34.50
2023-05-08T11:26:40.688Z,35.43
2023-05-08T11:29:16.871Z,35.90
2023-05-08T11:31:50.848Z,39.50
2023-05-08T11:34:42.042Z,37.50
2023-05-08T11:37:10.138Z,33.13
2023-05-08T11:39:36.893Z,39.47
2023-05-08T11:42:24.920Z,33.57
2023-05-08T11:45:08.924Z,37.77
2023-05-08T11:47:45.491Z,44.40
2023-05-08T11:50:13.523Z,41.63
2023-05-08T11:52:41.532Z,37.27
2023-05-08T11:55:09.665Z,38.53
2023-05-08T11:57:36.540Z,39.73
2023-05-08T12:00:07.183Z,48.93
2023-05-08T12:02:41.718Z,36.20
2023-05-08T12:05:09.905Z,38.93
2023-05-08T12:07:46.982Z,44.17
2023-05-08T12:10:15.487Z,35.33
2023-05-08T12:12:43.574Z,48.80
2023-05-08T12:15:12.365Z,49.80
2023-05-08T12:17:39.164Z,40.37
2023-05-08T12:20:14.208Z,38.93
2023-05-08T12:22:41.656Z,39.30
2023-05-08T12:25:09.393Z,45.60
2023-05-08T12:27:37.888Z,38.33
2023-05-08T12:30:09.204Z,40.90
2023-05-08T12:32:37.541Z,40.93
2023-05-08T12:35:05.266Z,49.30
2023-05-08T12:37:31.939Z,42.63
2023-05-08T12:39:58.543Z,38.37
2023-05-08T12:42:43.739Z,38.50
2023-05-08T12:45:20.782Z,42.43
2023-05-08T12:47:49.195Z,47.70
2023-05-08T12:50:17.849Z,40.07
2023-05-08T12:52:44.961Z,42.33
2023-05-08T12:55:29.080Z,46.50
2023-05-08T12:58:03.290Z,39.77
2023-05-08T13:00:39.888Z,41.10
2023-05-08T13:03:08.235Z,48.00
2023-05-08T13:05:37.033Z,43.40
2023-05-08T13:08:11.281Z,46.03
2023-05-08T13:10:44.907Z,46.73
2023-05-08T13:13:11.825Z,43.70
2023-05-08T13:15:38.375Z,42.43
2023-05-08T13:18:05.321Z,46.07
2023-05-08T13:20:31.880Z,41.87
2023-05-08T13:22:58.628Z,48.67
2023-05-08T13:25:25.318Z,48.97
2023-05-08T13:27:51.887Z,54.23
2023-05-08T13:30:18.727Z,42.63
2023-05-08T13:32:45.363Z,56.50
2023-05-08T13:35:11.994Z,42.93
2023-05-08T13:37:38.537Z,49.10
2023-05-08T13:40:05.954Z,43.67
2023-05-08T13:42:32.497Z,44.60
2023-05-08T13:44:59.083Z,49.10
2023-05-08T13:47:25.611Z,46.47
2023-05-08T13:49:52.222Z,47.23
2023-05-08T13:52:18.921Z,44.23
2023-05-08T13:54:45.418Z,44.70
2023-05-08T13:57:12.054Z,41.93
2023-05-08T13:59:39.304Z,49.57
2023-05-08T14:02:05.906Z,51.10
2023-05-08T14:04:32.642Z,44.63
2023-05-08T14:06:59.647Z,45.93
2023-05-08T14:09:26.287Z,47.17
2023-05-08T14:11:53.167Z,52.33
2023-05-08T14:14:19.727Z,40.53
2023-05-08T14:16:46.369Z,42.40
2023-05-08T14:19:12.905Z,41.13
2023-05-08T14:21:39.604Z,43.97
2023-05-08T14:24:06.411Z,39.07
2023-05-08T14:26:33.069Z,38.20
2023-05-08T14:28:59.686Z,41.03
2023-05-08T14:31:26.556Z,55.23
2023-05-08T14:33:53.068Z,45.53
2023-05-08T14:36:19.748Z,36.77
2023-05-08T14:38:46.966Z,43.97
2023-05-08T14:41:13.563Z,42.80
2023-05-08T14:43:40.061Z,36.30
2023-05-08T14:46:06.624Z,36.40
2023-05-08T14:48:33.417Z,39.17
2023-05-08T14:50:59.925Z,40.97
2023-05-08T14:53:26.884Z,39.83
2023-05-08T14:55:53.785Z,35.03
2023-05-08T14:58:20.639Z,37.40
2023-05-08T15:00:47.256Z,34.53
2023-05-08T15:03:13.962Z,32.60
2023-05-08T15:05:40.688Z,36.73
2023-05-08T15:08:07.509Z,34.03
2023-05-08T15:10:34.062Z,35.43
2023-05-08T15:13:00.816Z,31.20
2023-05-08T15:15:27.385Z,33.00
2023-05-08T15:17:54.054Z,30.27
2023-05-08T15:20:21.479Z,40.70
2023-05-08T15:22:48.131Z,37.83
2023-05-08T15:25:15.153Z,34.40
2023-05-08T15:27:42.079Z,32.30
2023-05-08T15:30:09.392Z,37.83
2023-05-08T15:32:36.237Z,35.33
2023-05-08T15:35:03.372Z,30.03
2023-05-08T15:37:30.150Z,35.27
2023-05-08T15:39:57.058Z,33.10
2023-05-08T15:42:24.096Z,30.17
2023-05-08T15:44:55.031Z,29.03
2023-05-08T15:47:23.459Z,33.40
2023-05-08T15:49:51.265Z,26.30
2023-05-08T15:52:19.677Z,30.60
2023-05-08T15:54:47.031Z,28.33
2023-05-08T15:57:13.919Z,33.10
2023-05-08T15:59:40.685Z,40.93
2023-05-08T16:02:08.143Z,34.33
2023-05-08T16:04:35.414Z,28.73
2023-05-08T16:07:02.564Z,38.23
2023-05-08T16:09:29.403Z,34.77
2023-05-08T16:11:55.959Z,29.53
2023-05-08T16:14:22.708Z,31.07
2023-05-08T16:16:49.386Z,31.07
2023-05-08T16:19:16.023Z,31.43
2023-05-08T16:21:42.837Z,33.80
2023-05-08T16:24:09.477Z,34.23
2023-05-08T16:26:36.027Z,37.80
2023-05-08T16:29:02.748Z,33.13
2023-05-08T16:31:29.403Z,38.50
2023-05-08T16:33:55.976Z,26.57
2023-05-08T16:36:22.857Z,30.00
2023-05-08T16:38:49.437Z,36.90
2023-05-08T16:41:16.203Z,34.33
2023-05-08T16:43:42.956Z,30.77
2023-05-08T16:46:09.527Z,35.23
2023-05-08T16:48:36.288Z,32.67
2023-05-08T16:51:03.152Z,44.83
2023-05-08T16:53:31.793Z,38.53
2023-05-08T16:55:58.343Z,26.57
2023-05-08T16:58:27.200Z,40.53
2023-05-08T17:00:54.022Z,31.43
2023-05-08T17:03:20.830Z,30.53
2023-05-08T17:05:47.763Z,36.13
2023-05-08T17:08:14.254Z,35.37
2023-05-08T17:10:41.614Z,38.43
2023-05-08T17:13:08.144Z,40.80
2023-05-08T17:15:34.712Z,30.57
2023-05-08T17:18:01.692Z,28.60
2023-05-08T17:20:28.291Z,34.30
2023-05-08T17:22:54.965Z,32.40
2023-05-08T17:25:22.847Z,34.10
2023-05-08T17:27:49.918Z,39.80
2023-05-08T17:30:17.013Z,35.20
2023-05-08T17:32:43.724Z,35.23
2023-05-08T17:35:10.770Z,35.13
2023-05-08T17:37:37.616Z,40.13
2023-05-08T17:40:04.505Z,41.73
2023-05-08T17:42:31.095Z,39.87
2023-05-08T17:44:57.770Z,37.03
2023-05-08T17:47:24.438Z,30.27
2023-05-08T17:49:51.019Z,36.87
2023-05-08T17:52:17.795Z,33.17
2023-05-08T17:54:44.448Z,38.67
2023-05-08T17:57:10.954Z,33.17
2023-05-08T17:59:37.703Z,40.33
2023-05-08T18:02:04.212Z,41.07
2023-05-08T18:04:30.757Z,31.70
2023-05-08T18:06:57.413Z,33.73
2023-05-08T18:09:24.031Z,32.47
2023-05-08T18:11:50.479Z,36.27
2023-05-08T18:14:17.138Z,30.27
2023-05-08T18:16:43.680Z,30.60
2023-05-08T18:19:10.204Z,33.30
2023-05-08T18:21:36.742Z,31.17
2023-05-08T18:24:03.736Z,44.40
2023-05-08T18:26:30.875Z,32.83
2023-05-08T18:28:57.532Z,39.13
2023-05-08T18:31:24.310Z,30.07
2023-05-08T18:33:50.904Z,34.97
2023-05-08T18:36:17.569Z,32.40
2023-05-08T18:38:44.190Z,34.20
2023-05-08T18:41:10.779Z,32.80
2023-05-08T18:43:37.338Z,30.10
2023-05-08T18:46:14.063Z,34.80
2023-05-08T18:48:41.261Z,36.53
2023-05-08T18:51:07.819Z,32.23
2023-05-08T18:53:38.169Z,35.83
2023-05-08T18:56:05.584Z,28.87
2023-05-08T18:58:32.465Z,30.20
2023-05-08T19:00:59.401Z,26.00
2023-05-08T19:03:26.266Z,25.90
2023-05-08T19:05:56.076Z,39.83
2023-05-08T19:08:22.673Z,31.00
2023-05-08T19:10:49.872Z,31.33
2023-05-08T19:13:16.511Z,26.43
2023-05-08T19:15:43.287Z,31.53
2023-05-08T19:18:10.082Z,34.97
2023-05-08T19:20:36.829Z,34.20
2023-05-08T19:23:03.445Z,28.70
2023-05-08T19:25:31.226Z,28.80
2023-05-08T19:27:58.759Z,33.17
2023-05-08T19:30:25.441Z,32.57
2023-05-08T19:32:52.065Z,29.50
2023-05-08T19:35:18.685Z,26.63
2023-05-08T19:37:45.332Z,31.10
2023-05-08T19:40:12.717Z,34.90
2023-05-08T19:42:39.478Z,31.50
2023-05-08T19:45:06.544Z,36.03
2023-05-08T19:47:33.217Z,30.80
2023-05-08T19:49:59.813Z,27.53
2023-05-08T19:52:26.515Z,35.30
2023-05-08T19:54:53.137Z,33.20
2023-05-08T19:57:19.766Z,39.90
2023-05-08T19:59:46.721Z,32.87
2023-05-08T20:02:13.313Z,33.33
2023-05-08T20:04:57.477Z,31.23
2023-05-08T20:07:26.453Z,23.97
2023-05-08T20:09:53.152Z,34.87
2023-05-08T20:12:19.794Z,29.37
2023-05-08T20:14:46.579Z,29.20
2023-05-08T20:17:13.165Z,29.63
2023-05-08T20:19:39.821Z,29.20
2023-05-08T20:22:06.322Z,25.20
2023-05-08T20:24:32.852Z,24.17
2023-05-08T20:26:59.492Z,27.23
2023-05-08T20:29:26.870Z,28.37
2023-05-08T20:31:53.907Z,24.40
2023-05-08T20:34:22.120Z,25.23
2023-05-08T20:36:48.879Z,30.90
2023-05-08T20:39:15.601Z,24.00
2023-05-08T20:41:42.131Z,30.23
2023-05-08T20:44:08.704Z,29.20
2023-05-08T20:46:35.222Z,29.60
2023-05-08T20:49:04.110Z,31.77
2023-05-08T20:51:32.028Z,24.40
2023-05-08T20:53:58.843Z,23.03
2023-05-08T20:56:25.801Z,24.70
2023-05-08T20:58:52.427Z,31.87
2023-05-08T21:01:20.951Z,26.40
2023-05-08T21:03:48.185Z,24.80
2023-05-08T21:06:14.810Z,31.63
2023-05-08T21:08:41.586Z,27.90
2023-05-08T21:11:08.607Z,28.33
2023-05-08T21:13:35.147Z,31.27
2023-05-08T21:16:01.747Z,24.00
2023-05-08T21:18:28.598Z,26.30
2023-05-08T21:20:55.078Z,26.13
2023-05-08T21:23:21.957Z,25.40
2023-05-08T21:25:49.504Z,24.53
2023-05-08T21:28:16.763Z,23.30
2023-05-08T21:30:43.837Z,29.30
2023-05-08T21:33:12.315Z,27.23
2023-05-08T21:35:38.966Z,21.27
2023-05-08T21:38:05.807Z,32.87
2023-05-08T21:40:32.341Z,21.70
2023-05-08T21:43:00.151Z,17.43
2023-05-08T21:45:32.521Z,21.33
2023-05-08T21:48:00.213Z,19.77
2023-05-08T21:50:30.187Z,19.83
2023-05-08T21:52:56.824Z,27.10
2023-05-08T21:55:24.323Z,19.70
2023-05-08T21:57:51.064Z,23.03
2023-05-08T22:00:18.190Z,21.20
2023-05-08T22:02:44.762Z,24.10
2023-05-08T22:05:11.651Z,25.70
2023-05-08T22:07:38.391Z,23.57
2023-05-08T22:10:05.611Z,24.07
2023-05-08T22:12:32.177Z,21.50
2023-05-08T22:14:58.830Z,20.20
2023-05-08T22:17:25.567Z,21.00
2023-05-08T22:19:52.459Z,22.20
2023-05-08T22:22:18.963Z,22.73
2023-05-08T22:24:45.453Z,20.73
2023-05-08T22:27:12.019Z,19.70
2023-05-08T22:29:38.505Z,24.37
2023-05-08T22:32:05.255Z,18.70
2023-05-08T22:34:31.829Z,24.60
2023-05-08T22:36:58.421Z,23.57
2023-05-08T22:39:26.365Z,19.07
2023-05-08T22:41:52.935Z,22.20
2023-05-08T22:44:19.568Z,24.93
2023-05-08T22:46:46.410Z,30.13
2023-05-08T22:49:13.280Z,26.70
2023-05-08T22:51:39.810Z,26.80
2023-05-08T22:54:06.630Z,28.60
2023-05-08T22:56:33.202Z,25.13
2023-05-08T22:58:59.773Z,27.23
2023-05-08T23:01:26.471Z,22.60
2023-05-08T23:03:53.853Z,21.33
2023-05-08T23:06:20.759Z,24.27
2023-05-08T23:08:47.377Z,24.87
2023-05-08T23:11:13.975Z,23.60
2023-05-08T23:13:40.588Z,23.57
2023-05-08T23:16:07.203Z,24.93
2023-05-08T23:18:34.588Z,31.27
2023-05-08T23:21:08.108Z,23.00
2023-05-08T23:23:35.408Z,22.53
2023-05-08T23:26:05.147Z,21.27
2023-05-08T23:28:35.945Z,23.27
2023-05-08T23:31:03.636Z,21.70
2023-05-08T23:33:30.953Z,22.43
2023-05-08T23:35:58.449Z,23.20
2023-05-08T23:38:25.304Z,21.53
2023-05-08T23:40:51.890Z,34.17
2023-05-08T23:43:18.753Z,23.10
2023-05-08T23:45:45.391Z,23.50
2023-05-08T23:48:12.025Z,21.20
2023-05-08T23:50:39.281Z,19.57
2023-05-08T23:53:05.856Z,21.23
2023-05-08T23:55:35.162Z,21.50
2023-05-08T23:58:01.752Z,24.17
